This is the latest recevied weather packets stored in our database for station/object OH5GWF-1. If no packets are shown the sender has not sent any weather packets the latest 10 day(s).
| Time | Temp. | Humidity | Pressure | Rain* | Wind** | Luminosity | Snow |
|---|---|---|---|---|---|---|---|
| 1777812169 | 20° C | 48% | 1007.6 hPa | 0 mm | - | - | - |
| 1777811758 | 18.33° C | 48% | 1007.8 hPa | 0 mm | - | - | - |
| 1777811566 | 19.44° C | 47% | 1007.7 hPa | 0 mm | - | - | - |
| 1777811336 | 20° C | 45% | 1007.6 hPa | 0 mm | - | - | - |
| 1777810902 | 24.44° C | 41% | 1007.5 hPa | 0 mm | - | - | - |
| 1777810490 | 22.22° C | 46% | 1007.4 hPa | 0 mm | - | - | - |
| 1777810254 | 21.67° C | 47% | 1007.4 hPa | 0 mm | - | - | - |
| 1777810080 | 20.56° C | 49% | 1007.4 hPa | 0 mm | - | - | - |
| 1777809658 | 20° C | 50% | 1007.4 hPa | 0 mm | - | - | - |
| 1777809586 | 19.44° C | 50% | 1007.4 hPa | 0 mm | - | - | - |
| 1777809235 | 19.44° C | 52% | 1007.4 hPa | 0 mm | - | - | - |
| 1777808922 | 18.33° C | 55% | 1007.4 hPa | 0 mm | - | - | - |
| 1777808813 | 17.22° C | 57% | 1007.5 hPa | 0 mm | - | - | - |
| 1777808390 | 16.11° C | 56% | 1007.6 hPa | 0 mm | - | - | - |
| 1777808332 | 16.67° C | 56% | 1007.6 hPa | 0 mm | - | - | - |
| 1777807980 | 17.22° C | 56% | 1007.7 hPa | 0 mm | - | - | - |
| 1777807607 | 16.67° C | 58% | 1007.5 hPa | 0 mm | - | - | - |
| 1777807557 | 16.67° C | 58% | 1007.5 hPa | 0 mm | - | - | - |
| 1777807134 | 15.56° C | 59% | 1007.5 hPa | 0 mm | - | - | - |
| 1777806944 | 15.56° C | 59% | 1007.5 hPa | 0 mm | - | - | - |
| 1777806714 | 15.56° C | 58% | 1007.4 hPa | 0 mm | - | - | - |
| 1777806291 | 16.67° C | 55% | 1007.5 hPa | 0 mm | - | - | - |
| 1777805869 | 18.33° C | 52% | 1007.3 hPa | 0 mm | - | - | - |
| 1777805628 | 19.44° C | 52% | 1007.4 hPa | 0 mm | - | - | - |
| 1777805458 | 18.89° C | 54% | 1007.4 hPa | 0 mm | - | - | - |
* Rain latest hour (hover to see other rain measurements)
** Current wind speed in m/s (hover to see current wind gust speed)